Time;durP1;ratioP1;P1;durP2;ratioP2;P2;SDS_P1;SDS_P2;PMS_P1;PMS_P2;Temp;Humidity;BMP_temperature;BMP_pressure;BME280_temperature;BME280_humidity;BME280_pressure;Samples;Min_cycle;Max_cycle;Signal;HPM_P1;HPM_P2
2022/03/11 00:01:42;;;;;;;28.70;12.75;;;9.80;66.30;;;;;;5021378;28;20022;-61
2022/03/11 00:04:08;;;;;;;25.55;12.68;;;9.90;66.40;;;;;;5026294;28;20021;-61
2022/03/11 00:06:33;;;;;;;24.52;12.50;;;9.80;66.30;;;;;;5022870;28;20108;-60
2022/03/11 00:08:59;;;;;;;24.75;12.43;;;9.70;66.30;;;;;;5021907;28;20025;-61
2022/03/11 00:11:24;;;;;;;20.98;12.00;;;9.70;66.30;;;;;;5005154;28;20390;-61
2022/03/11 00:13:50;;;;;;;18.77;11.32;;;9.70;66.00;;;;;;5024374;28;20022;-60
2022/03/11 00:16:16;;;;;;;18.23;11.15;;;9.60;66.20;;;;;;5006057;28;20448;-60
2022/03/11 00:18:42;;;;;;;20.55;11.07;;;9.70;66.10;;;;;;5028102;28;20166;-60
2022/03/11 00:21:12;;;;;;;24.08;12.50;;;9.60;65.90;;;;;;5006871;28;20078;-60
2022/03/11 00:23:40;;;;;;;20.83;11.88;;;9.60;65.80;;;;;;5024560;28;20033;-61
2022/03/11 00:26:06;;;;;;;24.92;13.65;;;9.60;65.80;;;;;;5021195;28;20413;-61
2022/03/11 00:28:32;;;;;;;25.00;11.82;;;9.60;65.80;;;;;;5021258;28;20630;-62
2022/03/11 00:30:58;;;;;;;22.95;11.73;;;9.50;65.60;;;;;;5022230;28;20064;-60
2022/03/11 00:33:23;;;;;;;20.05;12.60;;;9.50;65.90;;;;;;5024224;28;20335;-60
2022/03/11 00:35:49;;;;;;;20.42;12.75;;;9.50;65.40;;;;;;5024091;28;20087;-60
2022/03/11 00:38:14;;;;;;;21.42;12.27;;;9.40;65.40;;;;;;5007163;28;20045;-61
2022/03/11 00:40:40;;;;;;;21.05;12.60;;;9.40;65.50;;;;;;5021113;28;20086;-61
2022/03/11 00:43:05;;;;;;;24.83;13.38;;;9.40;65.50;;;;;;5007198;28;20048;-60
2022/03/11 00:45:31;;;;;;;21.20;12.55;;;9.40;65.50;;;;;;5025537;28;20075;-61
2022/03/11 00:47:56;;;;;;;20.52;11.80;;;9.30;65.50;;;;;;5023711;28;20082;-60
2022/03/11 00:50:22;;;;;;;19.02;11.77;;;9.30;65.60;;;;;;5020997;28;20140;-61
2022/03/11 00:52:48;;;;;;;17.95;11.13;;;9.20;65.60;;;;;;5024025;28;20055;-60
2022/03/11 00:55:14;;;;;;;16.50;10.57;;;9.20;65.40;;;;;;5022347;28;20080;-61
2022/03/11 00:57:39;;;;;;;21.02;11.90;;;9.20;65.60;;;;;;5026099;28;20433;-61
2022/03/11 01:00:06;;;;;;;18.08;11.05;;;9.10;65.80;;;;;;5022852;28;20076;-60
2022/03/11 01:02:35;;;;;;;16.23;10.90;;;9.10;65.90;;;;;;5021018;28;20338;-62
2022/03/11 01:05:05;;;;;;;19.40;10.98;;;9.10;66.00;;;;;;5021762;28;20033;-62
2022/03/11 01:07:30;;;;;;;18.48;10.60;;;9.10;66.10;;;;;;5022544;28;20041;-61
2022/03/11 01:09:56;;;;;;;15.93;10.60;;;9.10;66.50;;;;;;5025246;28;20034;-60
2022/03/11 01:12:22;;;;;;;15.27;11.25;;;9.00;66.50;;;;;;5021374;28;20030;-61
2022/03/11 01:14:47;;;;;;;19.17;10.80;;;9.00;66.30;;;;;;5020890;28;20044;-60
2022/03/11 01:17:13;;;;;;;17.23;10.90;;;9.00;66.00;;;;;;5021292;28;20115;-61
2022/03/11 01:19:39;;;;;;;20.60;10.90;;;9.00;66.00;;;;;;5023034;28;20091;-60
2022/03/11 01:22:05;;;;;;;17.40;10.35;;;8.90;66.20;;;;;;5022951;28;20025;-61
2022/03/11 01:24:30;;;;;;;16.92;11.65;;;8.90;66.10;;;;;;5023490;28;20533;-60
2022/03/11 01:26:56;;;;;;;15.25;10.45;;;8.90;66.20;;;;;;5020031;28;20551;-61
2022/03/11 01:29:21;;;;;;;18.88;11.05;;;8.90;66.00;;;;;;5021907;28;20030;-60
2022/03/11 01:31:47;;;;;;;15.65;10.48;;;8.80;65.80;;;;;;5023282;28;20062;-60
2022/03/11 01:34:12;;;;;;;15.55;9.98;;;8.80;66.00;;;;;;5021277;28;20030;-60
2022/03/11 01:36:38;;;;;;;17.67;10.90;;;8.70;65.90;;;;;;5023233;28;20030;-61
2022/03/11 01:39:04;;;;;;;14.48;10.93;;;8.80;65.70;;;;;;5022337;28;20152;-60
2022/03/11 01:41:29;;;;;;;16.17;9.90;;;8.70;65.60;;;;;;5022281;28;20046;-60
2022/03/11 01:43:59;;;;;;;13.85;10.43;;;8.70;65.70;;;;;;5022886;28;20052;-61
2022/03/11 01:46:24;;;;;;;18.38;10.68;;;8.70;65.70;;;;;;5021299;28;20112;-61
2022/03/11 01:48:50;;;;;;;17.50;10.63;;;8.60;65.60;;;;;;5023418;28;20048;-60
2022/03/11 01:51:16;;;;;;;12.32;9.30;;;8.60;65.80;;;;;;5021566;28;20113;-61
2022/03/11 01:53:41;;;;;;;13.00;9.00;;;8.60;65.60;;;;;;5021234;28;20184;-61
2022/03/11 01:56:07;;;;;;;13.73;9.82;;;8.60;65.60;;;;;;5020430;28;20720;-61
2022/03/11 01:58:32;;;;;;;16.08;9.52;;;8.50;65.70;;;;;;5021587;28;20555;-60
2022/03/11 02:00:58;;;;;;;16.45;9.98;;;8.50;65.70;;;;;;5003078;28;20046;-60
2022/03/11 02:03:23;;;;;;;15.75;10.00;;;8.50;65.60;;;;;;5006857;28;20027;-60
2022/03/11 02:05:49;;;;;;;14.20;9.82;;;8.40;65.70;;;;;;5000224;28;20040;-62
2022/03/11 02:08:15;;;;;;;16.95;10.32;;;8.40;65.80;;;;;;5004551;28;20045;-60
2022/03/11 02:10:40;;;;;;;17.80;10.48;;;8.30;65.80;;;;;;5018930;28;20420;-61
2022/03/11 02:13:06;;;;;;;13.73;9.95;;;8.30;65.70;;;;;;5020728;28;20460;-60
2022/03/11 02:15:32;;;;;;;17.05;9.90;;;8.30;65.50;;;;;;5021196;28;20029;-60
2022/03/11 02:17:57;;;;;;;17.90;10.18;;;8.30;65.50;;;;;;5022460;28;20048;-61
2022/03/11 02:20:23;;;;;;;14.75;9.07;;;8.30;65.40;;;;;;5019963;28;20076;-60
2022/03/11 02:22:51;;;;;;;16.77;9.35;;;8.30;65.40;;;;;;5021593;28;20062;-62
2022/03/11 02:25:17;;;;;;;13.95;9.88;;;8.20;65.50;;;;;;5021835;28;20457;-61
2022/03/11 02:27:42;;;;;;;11.40;8.75;;;8.20;65.60;;;;;;5021087;28;20039;-60
2022/03/11 02:30:13;;;;;;;11.23;8.50;;;8.20;65.70;;;;;;5020388;28;20086;-60
2022/03/11 02:32:39;;;;;;;13.25;8.48;;;8.10;65.60;;;;;;5022414;28;20072;-60
2022/03/11 02:35:05;;;;;;;14.68;8.55;;;8.10;65.50;;;;;;5018426;28;20058;-61
2022/03/11 02:37:31;;;;;;;14.85;8.93;;;8.20;66.40;;;;;;4988173;28;20507;-61
2022/03/11 02:39:56;;;;;;;11.63;8.75;;;8.10;65.50;;;;;;5017302;28;20030;-61
2022/03/11 02:42:22;;;;;;;15.32;8.60;;;8.00;65.40;;;;;;5020030;28;20049;-61
2022/03/11 02:44:48;;;;;;;12.43;8.55;;;8.00;65.40;;;;;;5003796;28;20082;-61
2022/03/11 02:47:13;;;;;;;12.27;8.73;;;8.00;65.50;;;;;;5017126;28;20045;-60
2022/03/11 02:49:39;;;;;;;10.85;8.30;;;8.00;65.50;;;;;;5017667;28;20052;-61
2022/03/11 02:52:04;;;;;;;10.32;8.23;;;8.00;65.70;;;;;;5018970;28;20119;-61
2022/03/11 02:54:30;;;;;;;11.05;8.48;;;7.90;65.50;;;;;;5020334;28;20034;-61
2022/03/11 02:56:55;;;;;;;11.57;8.52;;;7.90;65.70;;;;;;5019899;28;20088;-60
2022/03/11 02:59:21;;;;;;;13.38;8.35;;;7.90;65.80;;;;;;5020182;28;20037;-60
2022/03/11 03:01:46;;;;;;;12.70;9.45;;;7.90;65.50;;;;;;5018405;28;20462;-60
2022/03/11 03:04:13;;;;;;;11.65;8.50;;;7.80;65.60;;;;;;5019184;28;20539;-60
2022/03/11 03:06:39;;;;;;;15.65;9.65;;;7.80;65.70;;;;;;5003828;28;20029;-60
2022/03/11 03:09:04;;;;;;;14.05;9.38;;;7.80;65.80;;;;;;5020869;28;20029;-61
2022/03/11 03:11:30;;;;;;;13.25;9.30;;;7.80;65.70;;;;;;5019182;28;20061;-61
2022/03/11 03:13:55;;;;;;;16.27;8.88;;;7.80;65.70;;;;;;5018131;28;20084;-61
2022/03/11 03:16:21;;;;;;;12.63;9.07;;;7.80;65.80;;;;;;5003101;28;20589;-60
2022/03/11 03:18:47;;;;;;;13.80;8.50;;;7.70;65.80;;;;;;5021077;28;20369;-60
2022/03/11 03:21:12;;;;;;;13.60;9.02;;;7.70;65.80;;;;;;5020230;28;20505;-59
2022/03/11 03:23:38;;;;;;;10.65;7.93;;;7.70;65.90;;;;;;5018622;28;20025;-61
2022/03/11 03:26:03;;;;;;;15.57;7.90;;;7.70;65.90;;;;;;5002243;28;20049;-61
2022/03/11 03:28:29;;;;;;;10.88;7.65;;;7.60;66.00;;;;;;5018394;28;20045;-60
2022/03/11 03:30:54;;;;;;;11.25;7.57;;;7.70;66.10;;;;;;5020532;28;20489;-61
2022/03/11 03:33:20;;;;;;;11.75;8.70;;;7.60;66.00;;;;;;5020628;28;20052;-60
2022/03/11 03:35:46;;;;;;;12.27;8.35;;;7.60;66.10;;;;;;5004086;28;20109;-61
2022/03/11 03:38:11;;;;;;;13.80;8.63;;;7.60;66.10;;;;;;5018898;28;20041;-60
2022/03/11 03:40:37;;;;;;;14.05;9.32;;;7.60;66.10;;;;;;5001707;28;20037;-61
2022/03/11 03:43:02;;;;;;;14.52;9.15;;;7.50;66.10;;;;;;5021045;28;20487;-60
2022/03/11 03:45:28;;;;;;;13.52;9.20;;;7.60;66.10;;;;;;5021494;28;20056;-59
2022/03/11 03:47:54;;;;;;;12.23;9.38;;;7.50;66.10;;;;;;5021819;28;20025;-61
2022/03/11 03:50:20;;;;;;;13.82;9.07;;;7.50;66.10;;;;;;5019372;28;20419;-60
2022/03/11 03:52:45;;;;;;;13.52;8.27;;;7.40;66.20;;;;;;5019759;28;20037;-60
2022/03/11 03:55:14;;;;;;;14.27;9.77;;;7.40;66.20;;;;;;5002875;28;20125;-60
2022/03/11 03:57:39;;;;;;;12.00;8.70;;;7.40;66.30;;;;;;5019647;28;20045;-61
2022/03/11 04:00:06;;;;;;;12.07;8.80;;;7.40;66.40;;;;;;5020421;28;20022;-61
2022/03/11 04:02:32;;;;;;;11.63;8.70;;;7.30;66.60;;;;;;5019412;28;20165;-61
2022/03/11 04:04:58;;;;;;;13.02;8.57;;;7.30;66.80;;;;;;5016309;28;20049;-61
2022/03/11 04:07:23;;;;;;;11.73;8.52;;;7.20;66.70;;;;;;5019317;28;20041;-61
2022/03/11 04:09:49;;;;;;;12.13;8.15;;;7.20;66.90;;;;;;5022073;28;21182;-60
2022/03/11 04:12:14;;;;;;;13.20;8.57;;;7.20;67.10;;;;;;5019489;28;20291;-59
2022/03/11 04:14:40;;;;;;;11.70;8.45;;;7.10;67.10;;;;;;5019758;28;20033;-60
2022/03/11 04:17:06;;;;;;;10.93;8.38;;;7.10;67.20;;;;;;5020375;28;20063;-60
2022/03/11 04:19:31;;;;;;;10.52;8.35;;;7.10;67.20;;;;;;5022243;28;20071;-61
2022/03/11 04:21:57;;;;;;;11.63;7.75;;;7.10;67.20;;;;;;5021545;28;20038;-60
2022/03/11 04:24:23;;;;;;;9.52;7.30;;;7.00;67.30;;;;;;5021844;28;20045;-59
2022/03/11 04:26:49;;;;;;;9.52;7.35;;;7.00;67.40;;;;;;5008769;28;20284;-60
2022/03/11 04:29:14;;;;;;;10.98;7.95;;;7.00;67.30;;;;;;5006013;28;20347;-60
2022/03/11 04:31:40;;;;;;;12.27;7.90;;;7.00;67.40;;;;;;5023943;28;20034;-61
2022/03/11 04:34:06;;;;;;;11.55;7.82;;;7.00;67.40;;;;;;5021893;28;20052;-60
2022/03/11 04:36:33;;;;;;;9.88;7.68;;;7.00;67.40;;;;;;5021261;28;20025;-61
2022/03/11 04:39:00;;;;;;;11.18;7.95;;;7.00;67.30;;;;;;5023781;28;20398;-61
2022/03/11 04:41:25;;;;;;;13.20;8.18;;;7.00;67.20;;;;;;5022744;28;20022;-61
2022/03/11 04:43:51;;;;;;;10.65;7.90;;;7.00;67.30;;;;;;5020877;28;20038;-60
2022/03/11 04:46:16;;;;;;;10.50;7.70;;;6.90;67.30;;;;;;5020966;28;20489;-60
2022/03/11 04:48:44;;;;;;;10.55;7.85;;;6.90;67.40;;;;;;5021944;28;20022;-60
2022/03/11 04:51:10;;;;;;;10.40;8.32;;;6.90;67.30;;;;;;5023761;28;20033;-60
2022/03/11 04:53:35;;;;;;;9.52;7.97;;;6.80;67.20;;;;;;5021833;28;20036;-60
2022/03/11 04:56:01;;;;;;;13.90;8.38;;;6.80;67.30;;;;;;5022364;28;20037;-61
2022/03/11 04:58:26;;;;;;;11.30;8.27;;;6.80;67.30;;;;;;5020183;28;20042;-60
2022/03/11 05:00:52;;;;;;;10.80;7.53;;;6.80;67.30;;;;;;5023616;28;20548;-61
2022/03/11 05:03:17;;;;;;;11.35;7.78;;;6.80;67.40;;;;;;5004454;28;20033;-62
2022/03/11 05:05:43;;;;;;;10.20;6.82;;;6.70;67.40;;;;;;5007075;28;20527;-59
2022/03/11 05:08:08;;;;;;;10.77;7.32;;;6.70;67.50;;;;;;5022288;28;20033;-60
2022/03/11 05:10:34;;;;;;;13.98;7.82;;;6.70;67.50;;;;;;5023047;28;20215;-60
2022/03/11 05:12:59;;;;;;;10.55;7.93;;;6.70;67.70;;;;;;5022719;28;20079;-61
2022/03/11 05:15:25;;;;;;;10.45;7.63;;;6.70;67.80;;;;;;5005330;28;20076;-61
2022/03/11 05:17:51;;;;;;;9.68;7.53;;;6.60;67.70;;;;;;5021515;28;20537;-62
2022/03/11 05:20:17;;;;;;;10.57;7.95;;;6.60;67.80;;;;;;5022336;28;20597;-63
2022/03/11 05:22:42;;;;;;;12.05;7.80;;;6.60;68.00;;;;;;5021729;28;20144;-62
2022/03/11 05:25:09;;;;;;;14.00;7.07;;;6.60;68.00;;;;;;5021566;28;20236;-61
2022/03/11 05:27:34;;;;;;;9.95;7.93;;;6.60;68.00;;;;;;5021711;28;20135;-63
2022/03/11 05:30:00;;;;;;;13.07;8.02;;;6.50;68.00;;;;;;5023018;28;20053;-60
2022/03/11 05:32:25;;;;;;;14.95;7.85;;;6.50;68.20;;;;;;5023543;28;20069;-60
2022/03/11 05:34:51;;;;;;;20.92;8.57;;;6.60;68.20;;;;;;5022322;28;20045;-61
2022/03/11 05:37:16;;;;;;;16.75;8.82;;;6.50;68.30;;;;;;5021205;28;20076;-60
2022/03/11 05:39:42;;;;;;;16.30;8.57;;;6.50;68.40;;;;;;5024312;28;20565;-60
2022/03/11 05:42:08;;;;;;;25.48;9.50;;;6.50;68.50;;;;;;5022688;28;20480;-60
2022/03/11 05:44:34;;;;;;;22.35;9.15;;;6.50;68.60;;;;;;5023433;28;20424;-60
2022/03/11 05:46:59;;;;;;;21.30;9.18;;;6.40;68.50;;;;;;5021903;28;20037;-61
2022/03/11 05:49:25;;;;;;;19.30;8.18;;;6.40;68.60;;;;;;5021013;28;20054;-61
2022/03/11 05:51:51;;;;;;;19.83;9.38;;;6.40;68.60;;;;;;5020540;28;20041;-60
2022/03/11 05:54:17;;;;;;;21.52;8.40;;;6.40;68.60;;;;;;5022946;28;20026;-59
2022/03/11 05:56:43;;;;;;;26.52;8.70;;;6.40;68.70;;;;;;5021475;28;20041;-61
2022/03/11 05:59:08;;;;;;;21.98;8.82;;;6.40;68.80;;;;;;5020923;28;20052;-60
2022/03/11 06:01:34;;;;;;;24.60;8.80;;;6.40;68.80;;;;;;5019941;28;20014;-60
2022/03/11 06:04:01;;;;;;;18.30;8.25;;;6.40;68.70;;;;;;5002628;28;20485;-60
2022/03/11 06:06:27;;;;;;;15.77;8.32;;;6.40;69.00;;;;;;5019753;28;20026;-60
2022/03/11 06:08:53;;;;;;;20.20;8.35;;;6.30;69.10;;;;;;5007024;28;20052;-60
2022/03/11 06:11:18;;;;;;;23.45;8.75;;;6.30;69.30;;;;;;5005216;28;20497;-61
2022/03/11 06:13:44;;;;;;;16.65;9.02;;;6.30;69.40;;;;;;5021176;28;20029;-60
2022/03/11 06:16:09;;;;;;;17.60;8.30;;;6.30;69.40;;;;;;5020379;28;20033;-60
2022/03/11 06:18:35;;;;;;;20.73;8.68;;;6.30;69.60;;;;;;5021653;28;20345;-60
2022/03/11 06:21:00;;;;;;;16.50;8.73;;;6.30;69.60;;;;;;5017890;28;20067;-60
2022/03/11 06:23:26;;;;;;;31.42;9.90;;;6.30;69.60;;;;;;5024114;28;20030;-61
2022/03/11 06:25:51;;;;;;;31.08;9.55;;;6.30;69.70;;;;;;5021831;28;20099;-61
2022/03/11 06:28:17;;;;;;;15.10;9.80;;;6.30;70.00;;;;;;5021140;28;20532;-60
2022/03/11 06:30:45;;;;;;;19.02;9.15;;;6.20;70.00;;;;;;5020094;28;20049;-61
2022/03/11 06:33:10;;;;;;;16.08;9.18;;;6.20;70.00;;;;;;5021629;28;20017;-60
2022/03/11 06:35:36;;;;;;;15.38;8.70;;;6.20;70.10;;;;;;5023222;28;20074;-59
2022/03/11 06:38:02;;;;;;;14.63;8.13;;;6.20;70.00;;;;;;5022374;28;20407;-61
2022/03/11 06:40:29;;;;;;;14.57;8.77;;;6.20;70.00;;;;;;5003678;28;20317;-64
2022/03/11 06:42:54;;;;;;;17.20;8.85;;;6.20;70.10;;;;;;5020212;28;20041;-60
2022/03/11 06:45:20;;;;;;;16.55;9.85;;;6.20;70.20;;;;;;5020345;28;20057;-61
2022/03/11 06:47:48;;;;;;;13.30;8.65;;;6.20;70.10;;;;;;5021126;28;20044;-60
2022/03/11 06:50:15;;;;;;;16.70;8.13;;;6.20;70.20;;;;;;5020174;28;20536;-61
2022/03/11 06:52:41;;;;;;;11.73;8.57;;;6.10;70.20;;;;;;5020372;28;20041;-60
2022/03/11 06:55:07;;;;;;;18.10;8.45;;;6.10;70.20;;;;;;5018870;28;20034;-60
2022/03/11 06:57:32;;;;;;;15.15;8.60;;;6.10;70.20;;;;;;5019734;28;20141;-60
2022/03/11 06:59:58;;;;;;;16.60;9.25;;;6.10;70.10;;;;;;5022090;28;20021;-60
2022/03/11 07:02:24;;;;;;;14.63;9.13;;;6.10;70.00;;;;;;5022858;28;20028;-61
2022/03/11 07:04:49;;;;;;;12.93;9.27;;;6.10;70.20;;;;;;5018495;28;20021;-60
2022/03/11 07:07:15;;;;;;;17.23;8.88;;;6.20;70.10;;;;;;5018594;28;20065;-61
2022/03/11 07:09:40;;;;;;;17.35;9.43;;;6.10;70.00;;;;;;5002558;28;20132;-60
2022/03/11 07:12:06;;;;;;;13.23;8.77;;;6.10;70.10;;;;;;5000779;28;20061;-61
2022/03/11 07:14:33;;;;;;;17.42;10.90;;;6.20;70.20;;;;;;5020386;28;20044;-61
2022/03/11 07:16:59;;;;;;;16.05;10.10;;;6.10;70.20;;;;;;4986891;28;20038;-61
2022/03/11 07:19:24;;;;;;;19.90;10.63;;;6.10;70.10;;;;;;5017098;28;20277;-60
2022/03/11 07:21:50;;;;;;;19.42;10.95;;;6.20;70.20;;;;;;5000706;28;20136;-60
2022/03/11 07:24:16;;;;;;;21.80;10.30;;;6.10;70.10;;;;;;5023550;28;20041;-61
2022/03/11 07:26:41;;;;;;;20.08;10.95;;;6.20;70.20;;;;;;5022155;28;20060;-60
2022/03/11 07:29:07;;;;;;;17.65;10.48;;;6.10;70.10;;;;;;5007073;28;20033;-60
2022/03/11 07:31:32;;;;;;;19.05;10.88;;;6.20;70.30;;;;;;5021952;28;20045;-60
2022/03/11 07:33:58;;;;;;;21.00;10.88;;;6.20;70.20;;;;;;5002703;28;20141;-60
2022/03/11 07:36:23;;;;;;;24.85;11.38;;;6.20;70.30;;;;;;4983449;28;20061;-60
2022/03/11 07:38:49;;;;;;;29.50;11.55;;;6.20;70.30;;;;;;5012207;28;20066;-61
2022/03/11 07:41:15;;;;;;;23.60;11.45;;;6.20;70.20;;;;;;5018515;28;20040;-63
2022/03/11 07:43:42;;;;;;;21.58;11.40;;;6.30;70.30;;;;;;5018573;28;20111;-62
2022/03/11 07:46:08;;;;;;;28.83;11.25;;;6.30;70.30;;;;;;5016446;28;20045;-62
2022/03/11 07:48:34;;;;;;;36.65;11.50;;;6.20;70.30;;;;;;5016990;28;20038;-62
2022/03/11 07:50:59;;;;;;;30.10;10.90;;;6.30;70.40;;;;;;5017981;28;20115;-62
2022/03/11 07:53:25;;;;;;;26.48;11.10;;;6.30;70.30;;;;;;5016767;28;20048;-61
2022/03/11 07:55:50;;;;;;;25.35;11.00;;;6.30;70.40;;;;;;5019218;28;20026;-62
2022/03/11 07:58:17;;;;;;;29.60;11.88;;;6.30;70.50;;;;;;5017014;28;20041;-62
2022/03/11 08:00:42;;;;;;;51.25;12.00;;;6.30;70.50;;;;;;5021211;28;20061;-62
2022/03/11 08:03:08;;;;;;;44.42;12.88;;;6.40;70.80;;;;;;5021536;28;20068;-62
2022/03/11 08:05:34;;;;;;;38.38;12.68;;;6.40;70.70;;;;;;5021655;28;20381;-63
2022/03/11 08:07:59;;;;;;;60.92;14.40;;;6.40;70.70;;;;;;5016695;28;20048;-62
2022/03/11 08:10:25;;;;;;;67.05;15.00;;;6.40;71.40;;;;;;5012623;28;20548;-62
2022/03/11 08:12:53;;;;;;;87.50;16.00;;;6.40;70.80;;;;;;4992467;28;20064;-63
2022/03/11 08:15:18;;;;;;;72.60;15.65;;;6.40;70.80;;;;;;5008100;28;20080;-62
2022/03/11 08:17:44;;;;;;;76.47;16.02;;;6.40;70.90;;;;;;5006845;28;20029;-62
2022/03/11 08:20:10;;;;;;;67.75;14.90;;;6.50;70.90;;;;;;5010947;28;20327;-63
2022/03/11 08:22:36;;;;;;;75.65;15.65;;;6.50;70.90;;;;;;5011761;28;21162;-62
2022/03/11 08:25:01;;;;;;;64.05;15.07;;;6.50;71.00;;;;;;5015497;28;20038;-62
2022/03/11 08:27:27;;;;;;;74.90;13.80;;;6.50;71.10;;;;;;4998212;28;20046;-61
2022/03/11 08:29:53;;;;;;;74.68;15.40;;;6.50;70.90;;;;;;5019178;28;20684;-62
2022/03/11 08:32:19;;;;;;;51.10;14.05;;;6.60;70.90;;;;;;5017716;28;20113;-62
2022/03/11 08:34:44;;;;;;;45.53;14.48;;;6.60;70.90;;;;;;5016958;28;20499;-62
2022/03/11 08:37:10;;;;;;;48.75;14.30;;;6.60;70.90;;;;;;5016004;28;20739;-63
2022/03/11 08:39:35;;;;;;;73.82;15.80;;;6.60;70.90;;;;;;5021685;28;20033;-63
2022/03/11 08:42:01;;;;;;;127.95;20.88;;;6.60;70.80;;;;;;5019285;28;20068;-62
2022/03/11 08:44:27;;;;;;;49.35;14.80;;;6.60;70.70;;;;;;5019697;28;20814;-62
2022/03/11 08:46:52;;;;;;;56.30;12.98;;;6.70;70.70;;;;;;5016043;28;20083;-60
2022/03/11 08:49:18;;;;;;;62.83;13.52;;;6.70;70.70;;;;;;5016631;28;20186;-60
2022/03/11 08:51:43;;;;;;;55.75;12.73;;;6.70;70.70;;;;;;5008575;28;20049;-61
2022/03/11 08:54:09;;;;;;;46.30;13.32;;;6.70;70.70;;;;;;5011829;28;20073;-60
2022/03/11 08:56:34;;;;;;;57.22;13.68;;;6.70;70.80;;;;;;5005899;28;20071;-60
2022/03/11 08:59:00;;;;;;;40.75;12.23;;;6.70;70.60;;;;;;5010691;28;20031;-59
2022/03/11 09:01:25;;;;;;;51.90;13.82;;;6.70;70.60;;;;;;5013732;28;20420;-60
2022/03/11 09:03:51;;;;;;;53.20;12.45;;;6.70;70.60;;;;;;5011561;28;20523;-61
2022/03/11 09:06:17;;;;;;;67.57;13.73;;;6.70;70.60;;;;;;4990247;28;20827;-62
2022/03/11 09:08:43;;;;;;;69.95;13.20;;;6.70;70.60;;;;;;5008232;28;20108;-61
2022/03/11 09:11:08;;;;;;;60.50;13.40;;;6.70;70.70;;;;;;5003775;28;20049;-64
2022/03/11 09:13:34;;;;;;;78.38;15.38;;;6.80;71.00;;;;;;5005404;28;20100;-62
2022/03/11 09:15:59;;;;;;;53.95;14.45;;;6.80;71.00;;;;;;5001821;28;20673;-63
2022/03/11 09:18:25;;;;;;;54.78;13.73;;;6.80;71.00;;;;;;5008849;28;20544;-62
2022/03/11 09:20:50;;;;;;;65.70;14.15;;;6.90;71.00;;;;;;5006623;28;20064;-62
2022/03/11 09:23:16;;;;;;;54.88;14.45;;;6.90;71.00;;;;;;4991664;28;20033;-61
2022/03/11 09:25:41;;;;;;;63.53;14.32;;;6.90;71.00;;;;;;5011238;28;20025;-62
2022/03/11 09:28:07;;;;;;;71.60;14.07;;;7.00;71.10;;;;;;5011486;28;20041;-63
2022/03/11 09:30:32;;;;;;;56.90;13.70;;;7.00;71.00;;;;;;4991908;28;20046;-62
2022/03/11 09:32:58;;;;;;;63.75;15.35;;;7.00;70.90;;;;;;5013151;28;20468;-62
2022/03/11 09:35:24;;;;;;;55.92;13.35;;;7.00;71.10;;;;;;5018514;28;20041;-62
2022/03/11 09:37:49;;;;;;;58.20;14.55;;;7.10;71.30;;;;;;5015295;28;20029;-62
2022/03/11 09:40:16;;;;;;;48.17;13.98;;;7.10;71.30;;;;;;4996891;28;20065;-64
2022/03/11 09:42:41;;;;;;;54.72;14.35;;;7.10;71.40;;;;;;4999206;28;20540;-63
2022/03/11 09:45:07;;;;;;;64.47;15.95;;;7.10;71.20;;;;;;5017230;28;20040;-60
2022/03/11 09:47:33;;;;;;;68.00;15.40;;;7.10;71.20;;;;;;5013130;28;20511;-61
2022/03/11 09:49:58;;;;;;;70.10;16.00;;;7.20;71.30;;;;;;4996857;28;20068;-60
2022/03/11 09:52:24;;;;;;;65.40;15.35;;;7.20;71.40;;;;;;4993207;28;20454;-63
2022/03/11 09:54:49;;;;;;;73.25;14.10;;;7.20;71.30;;;;;;4996050;28;20045;-61
2022/03/11 09:57:17;;;;;;;63.88;15.27;;;7.30;71.50;;;;;;4981606;28;20105;-62
2022/03/11 09:59:43;;;;;;;59.70;16.05;;;7.30;71.40;;;;;;5015611;28;20033;-62
2022/03/11 10:02:12;;;;;;;63.58;14.48;;;7.30;71.50;;;;;;5010124;28;20045;-61
2022/03/11 10:04:45;;;;;;;59.72;15.63;;;7.30;71.50;;;;;;5010151;28;20040;-61
2022/03/11 10:07:26;;;;;;;56.67;15.07;;;7.40;71.60;;;;;;4995999;28;20053;-61
2022/03/11 10:09:52;;;;;;;45.35;14.82;;;7.40;71.60;;;;;;5003602;28;20176;-61
2022/03/11 10:12:29;;;;;;;63.47;14.52;;;7.40;71.50;;;;;;5006587;28;20029;-60
2022/03/11 10:14:59;;;;;;;55.97;15.60;;;7.50;71.60;;;;;;5009709;28;20034;-61
2022/03/11 10:17:25;;;;;;;62.65;15.23;;;7.50;71.40;;;;;;5003667;28;20536;-60
2022/03/11 10:20:02;;;;;;;61.30;15.40;;;7.70;71.60;;;;;;4994497;28;20048;-61
2022/03/11 10:22:28;;;;;;;52.60;15.35;;;7.60;71.60;;;;;;5013563;28;20029;-60
2022/03/11 10:24:55;;;;;;;74.28;16.15;;;7.60;71.50;;;;;;5013033;28;20554;-62
2022/03/11 10:27:23;;;;;;;68.13;16.50;;;7.60;71.50;;;;;;4999421;28;20438;-62
2022/03/11 10:29:49;;;;;;;79.30;16.73;;;7.60;71.60;;;;;;5007490;28;20111;-63
2022/03/11 10:32:23;;;;;;;54.50;14.88;;;7.70;71.60;;;;;;4995451;28;20123;-62
2022/03/11 10:34:49;;;;;;;57.08;14.68;;;7.70;71.50;;;;;;4998158;28;21003;-60
2022/03/11 10:37:15;;;;;;;84.22;17.17;;;7.70;71.20;;;;;;4994862;28;20025;-62
2022/03/11 10:39:44;;;;;;;92.20;19.73;;;7.70;71.40;;;;;;4983585;28;20025;-61
2022/03/11 10:42:19;;;;;;;67.47;16.67;;;7.80;71.40;;;;;;5005022;28;20089;-61
2022/03/11 10:45:10;;;;;;;65.63;15.70;;;7.80;71.40;;;;;;5012709;28;20030;-61
2022/03/11 10:47:37;;;;;;;63.33;15.60;;;7.80;71.50;;;;;;5012408;28;20125;-61
2022/03/11 10:50:03;;;;;;;49.95;15.25;;;7.80;71.30;;;;;;5009028;28;20049;-61
2022/03/11 10:52:34;;;;;;;61.80;16.15;;;7.90;71.30;;;;;;5011990;28;20033;-61
2022/03/11 10:55:01;;;;;;;65.65;16.98;;;7.80;71.10;;;;;;5006022;28;20140;-62
2022/03/11 10:57:37;;;;;;;50.13;16.65;;;7.90;71.30;;;;;;5009538;28;20040;-62
2022/03/11 11:00:21;;;;;;;73.72;15.38;;;7.90;71.00;;;;;;4988651;28;20041;-61
2022/03/11 11:02:48;;;;;;;54.42;16.27;;;8.00;71.10;;;;;;5013130;28;20025;-61
2022/03/11 11:05:13;;;;;;;70.97;17.27;;;8.00;71.10;;;;;;4989966;28;20037;-61
2022/03/11 11:07:42;;;;;;;65.43;17.52;;;8.00;71.00;;;;;;4979706;28;20033;-61
2022/03/11 11:10:12;;;;;;;46.17;15.10;;;8.10;71.00;;;;;;5008162;28;20334;-62
2022/03/11 11:12:39;;;;;;;59.92;15.43;;;8.10;71.00;;;;;;4996856;28;20064;-60
2022/03/11 11:15:06;;;;;;;55.08;16.35;;;8.20;70.80;;;;;;5010000;28;20537;-61
2022/03/11 11:17:31;;;;;;;66.13;16.20;;;8.20;70.60;;;;;;5010035;28;20145;-62
2022/03/11 11:19:58;;;;;;;72.15;17.33;;;8.30;70.50;;;;;;5005316;28;20030;-61
2022/03/11 11:22:26;;;;;;;70.63;16.27;;;8.30;70.50;;;;;;4990927;28;20056;-61
2022/03/11 11:24:54;;;;;;;65.00;17.65;;;8.30;70.90;;;;;;5003743;28;20063;-61
2022/03/11 11:27:20;;;;;;;70.18;18.23;;;8.40;71.00;;;;;;5011206;28;20045;-62
2022/03/11 11:29:50;;;;;;;58.65;17.02;;;8.40;71.20;;;;;;4993528;28;20088;-61
2022/03/11 11:32:18;;;;;;;82.40;18.02;;;8.50;71.00;;;;;;4987467;28;20037;-61
2022/03/11 11:34:44;;;;;;;85.18;18.23;;;8.50;71.00;;;;;;5004149;28;20033;-60
2022/03/11 11:37:37;;;;;;;71.05;17.58;;;8.60;71.10;;;;;;5012906;28;20079;-61
2022/03/11 11:40:22;;;;;;;91.03;18.65;;;8.60;71.00;;;;;;5012857;28;20084;-61
2022/03/11 11:43:25;;;;;;;93.27;18.70;;;8.70;70.70;;;;;;5006839;28;20079;-60
2022/03/11 11:45:51;;;;;;;86.60;21.48;;;8.70;71.10;;;;;;5004039;28;20034;-60
2022/03/11 11:48:35;;;;;;;111.55;20.92;;;8.80;71.30;;;;;;5005673;28;20925;-61
2022/03/11 11:51:05;;;;;;;75.45;20.17;;;8.80;71.30;;;;;;5006082;28;20627;-60
2022/03/11 11:53:34;;;;;;;85.15;20.85;;;8.90;71.10;;;;;;5004581;28;20033;-62
2022/03/11 11:56:00;;;;;;;96.28;20.20;;;8.90;71.10;;;;;;5016664;28;20068;-61
2022/03/11 11:58:26;;;;;;;95.47;20.75;;;8.90;71.10;;;;;;5014286;28;20113;-62
2022/03/11 12:00:55;;;;;;;99.53;20.02;;;9.00;71.10;;;;;;5006046;28;20902;-62
2022/03/11 12:03:20;;;;;;;94.32;21.25;;;9.10;71.00;;;;;;5008724;28;20049;-62
2022/03/11 12:05:48;;;;;;;104.80;22.40;;;9.10;70.80;;;;;;5014518;28;20192;-61
2022/03/11 12:08:39;;;;;;;114.65;22.33;;;9.20;70.90;;;;;;4996159;28;20050;-60
2022/03/11 12:11:05;;;;;;;185.45;25.17;;;9.20;70.60;;;;;;5013557;28;20025;-60
2022/03/11 12:13:38;;;;;;;138.02;24.50;;;9.30;70.80;;;;;;5010734;28;20061;-61
2022/03/11 12:16:04;;;;;;;127.13;21.95;;;9.30;70.80;;;;;;5013698;28;20105;-60
2022/03/11 12:18:44;;;;;;;142.77;25.33;;;9.30;70.70;;;;;;5001419;28;20041;-61
2022/03/11 12:21:22;;;;;;;124.82;21.17;;;9.40;70.70;;;;;;5002383;28;20660;-61
2022/03/11 12:23:48;;;;;;;113.65;22.80;;;9.40;70.70;;;;;;5017709;28;20125;-62
2022/03/11 12:26:14;;;;;;;102.78;20.67;;;9.50;70.50;;;;;;5018212;28;20010;-61
2022/03/11 12:28:42;;;;;;;103.65;20.80;;;9.50;70.40;;;;;;5013570;28;20030;-61
2022/03/11 12:31:13;;;;;;;91.68;19.60;;;9.60;70.60;;;;;;5013293;28;20045;-62
2022/03/11 12:33:42;;;;;;;118.70;20.15;;;9.60;70.20;;;;;;5020379;28;20040;-60
2022/03/11 12:36:27;;;;;;;105.95;21.65;;;9.70;70.00;;;;;;5021326;28;20056;-62
2022/03/11 12:38:53;;;;;;;131.63;21.92;;;9.70;70.10;;;;;;5020375;28;20113;-62